UWKDUWKS

Guest
Details From UWKD - KAZAN
To UWKS - CHEBOKSARY
Flight Number -
Tags generated
Created
Modified
Stats Distance 71 nm / 132 km
Max Altitude 0 ft / 0 m
Waypoints 2
Social Downloads 5
Likes 0
Share VATSIM

Download

Looking for another format? Having issues loading an existing format? Contact us
Advertisement - Login to hide

Notes

Basic altitude profile: - Ascent Rate: 2500ft/min - Ascent Speed: 250kts - Cruise Altitude: 35000ft - Cruise Speed: 420kts - Descent Rate: 1500ft/min - Descent Speed: 250kts Options: - Use NATs: yes - Use PACOTS: yes - Use low airways: yes - Use high airways: yes

Route

UWKD UWKS

ID Type Via Altitude Latitude Longitude Leg Dist Tot Dist Heading (true) Name
O UWKD APT - 0 ft / 0 m 55.60654˚ 49.27969˚ - 0 nm - KAZAN
O UWKS APT - 0 ft / 0 m 56.09027˚ 47.34725˚ 71 nm 71 nm 295° / 293° CHEBOKSARY

Altitude Profile

Advertisement - Login to hide

UWKD

Details ICAO UWKD (KZN)
Name KAZAN
Region Russia
Timezone Europe/Moscow (UTC+3.0)
Stats Elevation 411 ft / 125 m (AMSL)
Location 55.606544° 49.279689°
Runways 2
Magnetic Variation 13.288° E

METAR

UWKD 182030Z 15005MPS CAVOK M10/M13 Q1031 R11/710050 NOSIG RMK QFE763/1018

Decode

TAF

TAF UWKD 181956Z 1821/1921 16007G12MPS 9999 BKN015 TXM08/1912Z TNM11/1903Z TEMPO 1821/1906 14005MPS

Decode

Departure Runways

ID Width Length Bearing (true) Bearing (mag) Surface Threshold Offset Overrun Length
11L 144 ft / 44 m 12,189 ft / 3,715 m 126.46° 113.17° Concrete 837 ft / 255 m 0 ft / 0 m
11R 148 ft / 45 m 8,174 ft / 2,492 m 124.48° 111.19° Concrete 0 ft / 0 m 180 ft / 55 m
29L 148 ft / 45 m 8,174 ft / 2,492 m 304.51° 291.22° Concrete 0 ft / 0 m 180 ft / 55 m
29R 144 ft / 44 m 12,189 ft / 3,715 m 306.50° 293.21° Concrete 0 ft / 0 m 160 ft / 49 m

UWKS

Details ICAO UWKS (CSY)
Name CHEBOKSARY
Region Russia
Timezone Europe/Moscow (UTC+3.0)
Stats Elevation 560 ft / 171 m (AMSL)
Location 56.090269° 47.347251°
Runways 1
Magnetic Variation 13.291° E

METAR

UWKS 182030Z 16005MPS CAVOK M08/M11 Q1028 R24/920343 NOSIG RMK QFE756

Decode

TAF

Not found

Destination Runways

ID Width Length Bearing (true) Bearing (mag) Surface Threshold Offset Overrun Length
06 161 ft / 49 m 8,220 ft / 2,505 m 71.95° 58.66° Asphalt 0 ft / 0 m 165 ft / 50 m
24 161 ft / 49 m 8,220 ft / 2,505 m 251.98° 238.69° Asphalt 0 ft / 0 m 175 ft / 53 m

Approach Navaids

Runway Type Ident Frequency Range Bearing (true) Bearing (mag) Slope Elevation
06 Localiser ILA 110.30 MHz 18 nm / 33 km 71.94° 58.65° - 560 ft / 171 m (AMSL)
06 Glidescope ILA 110.30 MHz 10 nm / 19 km 71.96° 58.67° 3.00° 560 ft / 171 m (AMSL)
24 Localiser ICR 108.30 MHz 18 nm / 33 km 251.80° 238.50° - 560 ft / 171 m (AMSL)
24 Glidescope ICR 108.30 MHz 10 nm / 19 km 251.96° 238.67° 2.70° 560 ft / 171 m (AMSL)

Popular Alternatives